Time;durP1;ratioP1;P1;durP2;ratioP2;P2;SDS_P1;SDS_P2;PMS_P1;PMS_P2;Temp;Humidity;BMP_temperature;BMP_pressure;BME280_temperature;BME280_humidity;BME280_pressure;Samples;Min_cycle;Max_cycle;Signal;HPM_P1;HPM_P2
2021/04/05 00:00:41;;;;;;;;;;;2.50;83.70;;;;;;5056250;28;19921;-68
2021/04/05 00:03:07;;;;;;;;;;;2.40;84.50;;;;;;5056435;28;19954;-68
2021/04/05 00:05:37;;;;;;;;;;;2.20;85.00;;;;;;5055985;28;19966;-68
2021/04/05 00:08:03;;;;;;;;;;;2.00;85.70;;;;;;5054450;28;20399;-67
2021/04/05 00:10:33;;;;;;;;;;;1.90;86.50;;;;;;5053980;28;19920;-68
2021/04/05 00:13:01;;;;;;;;;;;1.80;86.80;;;;;;5056603;28;19913;-68
2021/04/05 00:15:27;;;;;;;;;;;1.80;86.50;;;;;;5055035;28;19927;-69
2021/04/05 00:17:52;;;;;;;;;;;1.80;86.70;;;;;;5056350;28;20302;-70
2021/04/05 00:20:23;;;;;;;;;;;1.70;86.70;;;;;;5055269;28;19912;-69
2021/04/05 00:22:48;;;;;;;;;;;1.80;86.80;;;;;;5050976;28;20260;-70
2021/04/05 00:25:20;;;;;;;;;;;2.00;86.50;;;;;;5056601;28;20027;-70
2021/04/05 00:27:45;;;;;;;;;;;2.00;86.00;;;;;;5051695;28;20317;-69
2021/04/05 00:30:16;;;;;;;;;;;2.10;85.60;;;;;;5055513;28;19920;-69
2021/04/05 00:32:45;;;;;;;;;;;2.00;86.10;;;;;;5055593;28;19966;-69
2021/04/05 00:35:12;;;;;;;;;;;1.90;87.00;;;;;;5055906;28;19924;-69
2021/04/05 00:37:37;;;;;;;;;;;1.70;87.00;;;;;;5053817;28;20003;-69
2021/04/05 00:40:05;;;;;;;;;;;1.60;87.50;;;;;;5054456;28;20320;-70
2021/04/05 00:42:31;;;;;;;;;;;1.70;87.40;;;;;;5056434;28;20318;-68
2021/04/05 00:44:56;;;;;;;;;;;1.80;87.00;;;;;;5057875;28;19921;-68
2021/04/05 00:47:25;;;;;;;;;;;1.80;87.10;;;;;;5055612;28;19924;-68
2021/04/05 00:49:50;;;;;;;;;;;1.70;87.60;;;;;;5055881;28;19937;-68
2021/04/05 00:52:16;;;;;;;;;;;1.60;88.00;;;;;;5054057;28;19913;-67
2021/04/05 00:54:41;;;;;;;;;;;1.60;88.20;;;;;;5054376;28;20267;-70
2021/04/05 00:57:07;;;;;;;;;;;1.70;88.20;;;;;;5054879;28;19920;-70
2021/04/05 00:59:38;;;;;;;;;;;1.80;87.60;;;;;;5054481;28;20298;-70
2021/04/05 01:02:04;;;;;;;;;;;1.80;87.60;;;;;;5055436;28;20309;-68
2021/04/05 01:04:32;;;;;;;;;;;1.90;87.20;;;;;;5054814;28;19912;-69
2021/04/05 01:06:57;;;;;;;;;;;2.00;87.40;;;;;;5052381;28;19921;-68
2021/04/05 01:09:23;;;;;;;;;;;2.10;87.10;;;;;;5052504;28;19913;-67
2021/04/05 01:11:48;;;;;;;;;;;2.40;86.30;;;;;;5054871;28;19913;-67
2021/04/05 01:14:14;;;;;;;;;;;2.50;85.80;;;;;;5054693;28;20214;-70
2021/04/05 01:16:39;;;;;;;;;;;2.40;86.30;;;;;;5054391;28;19971;-70
2021/04/05 01:19:05;;;;;;;;;;;2.40;86.00;;;;;;5041422;28;19917;-70
2021/04/05 01:21:31;;;;;;;;;;;2.70;85.60;;;;;;5054467;28;19921;-68
2021/04/05 01:23:59;;;;;;;;;;;3.00;84.30;;;;;;5052848;28;19931;-70
2021/04/05 01:26:25;;;;;;;;;;;3.10;83.60;;;;;;5054269;28;19921;-68
2021/04/05 01:28:50;;;;;;;;;;;3.30;83.30;;;;;;5054607;28;20228;-70
2021/04/05 01:31:16;;;;;;;;;;;3.40;82.80;;;;;;5054410;28;19959;-69
2021/04/05 01:33:43;;;;;;;;;;;3.40;82.50;;;;;;5053232;28;20216;-70
2021/04/05 01:36:08;;;;;;;;;;;3.60;82.50;;;;;;5054485;28;19913;-70
2021/04/05 01:38:43;;;;;;;;;;;3.50;82.40;;;;;;5086505;28;19919;-70
2021/04/05 01:41:10;;;;;;;;;;;3.50;82.20;;;;;;5054810;28;20198;-69
2021/04/05 01:43:36;;;;;;;;;;;3.30;83.00;;;;;;5053734;28;19956;-70
2021/04/05 01:46:05;;;;;;;;;;;3.20;83.60;;;;;;5054307;28;19971;-70
2021/04/05 01:48:31;;;;;;;;;;;3.30;83.70;;;;;;5054916;28;19996;-70
2021/04/05 01:51:02;;;;;;;;;;;3.40;83.50;;;;;;5050228;28;20007;-67
2021/04/05 01:53:27;;;;;;;;;;;3.30;83.50;;;;;;5053856;28;19913;-68
2021/04/05 01:55:53;;;;;;;;;;;3.30;83.80;;;;;;5052557;28;20313;-68
2021/04/05 01:58:19;;;;;;;;;;;3.30;84.00;;;;;;5050070;28;19931;-68
2021/04/05 02:00:46;;;;;;;;;;;3.40;84.00;;;;;;5047800;28;19917;-69
2021/04/05 02:03:12;;;;;;;;;;;3.50;83.50;;;;;;5049481;28;19945;-68
2021/04/05 02:05:44;;;;;;;;;;;3.40;83.80;;;;;;5052201;28;19956;-69
2021/04/05 02:08:09;;;;;;;;;;;3.50;83.90;;;;;;5052796;28;19959;-68
2021/04/05 02:10:36;;;;;;;;;;;3.50;83.90;;;;;;5053964;28;19921;-69
2021/04/05 02:13:01;;;;;;;;;;;3.60;83.50;;;;;;5052258;28;19913;-69
2021/04/05 02:15:27;;;;;;;;;;;3.70;83.20;;;;;;5052367;28;19939;-68
2021/04/05 02:17:53;;;;;;;;;;;3.80;83.10;;;;;;5053372;28;19920;-69
2021/04/05 02:20:20;;;;;;;;;;;4.00;82.50;;;;;;5054390;28;19921;-69
2021/04/05 02:22:46;;;;;;;;;;;3.90;82.30;;;;;;5054430;28;19965;-69
2021/04/05 02:25:14;;;;;;;;;;;4.10;81.80;;;;;;5058120;28;20259;-68
2021/04/05 02:27:41;;;;;;;;;;;4.00;81.70;;;;;;5057893;28;19917;-69
2021/04/05 02:30:06;;;;;;;;;;;3.90;82.20;;;;;;5056919;28;20003;-69
2021/04/05 02:32:32;;;;;;;;;;;4.00;81.90;;;;;;5056980;28;19995;-69
2021/04/05 02:34:58;;;;;;;;;;;4.20;80.60;;;;;;5058003;28;19958;-70
2021/04/05 02:37:23;;;;;;;;;;;4.30;80.70;;;;;;5056937;28;19956;-70
2021/04/05 02:39:49;;;;;;;;;;;4.30;80.40;;;;;;5056497;28;19928;-69
2021/04/05 02:42:16;;;;;;;;;;;4.30;80.30;;;;;;5058887;28;19912;-70
2021/04/05 02:44:43;;;;;;;;;;;4.30;80.10;;;;;;5057750;28;20336;-69
2021/04/05 02:47:09;;;;;;;;;;;4.30;80.10;;;;;;5057984;28;20372;-69
2021/04/05 02:49:34;;;;;;;;;;;4.20;80.10;;;;;;5057316;28;20048;-69
2021/04/05 02:52:00;;;;;;;;;;;4.10;80.50;;;;;;5058081;28;20008;-68
2021/04/05 02:54:26;;;;;;;;;;;4.10;80.40;;;;;;5056748;28;19920;-69
2021/04/05 02:56:52;;;;;;;;;;;4.40;79.60;;;;;;5057902;28;19921;-69
2021/04/05 02:59:20;;;;;;;;;;;4.50;79.30;;;;;;5054282;28;19913;-69
2021/04/05 03:01:45;;;;;;;;;;;4.40;79.60;;;;;;5057632;28;19919;-69
2021/04/05 03:04:11;;;;;;;;;;;4.50;78.90;;;;;;5056270;28;19913;-70
2021/04/05 03:06:37;;;;;;;;;;;4.50;79.50;;;;;;5057399;28;20015;-70
2021/04/05 03:09:05;;;;;;;;;;;4.20;80.10;;;;;;5056034;28;20359;-69
2021/04/05 03:11:30;;;;;;;;;;;4.10;81.00;;;;;;5057666;28;19955;-69
2021/04/05 03:13:56;;;;;;;;;;;3.80;81.80;;;;;;5055395;28;19956;-68
2021/04/05 03:16:23;;;;;;;;;;;3.70;82.50;;;;;;5056024;28;19928;-69
2021/04/05 03:18:49;;;;;;;;;;;3.40;83.50;;;;;;5056672;28;19913;-69
2021/04/05 03:21:16;;;;;;;;;;;3.40;83.90;;;;;;5057154;28;19913;-69
2021/04/05 03:23:45;;;;;;;;;;;3.50;83.90;;;;;;5054840;28;19952;-69
2021/04/05 03:26:10;;;;;;;;;;;3.90;83.00;;;;;;5056053;28;20003;-70
2021/04/05 03:28:36;;;;;;;;;;;3.90;82.60;;;;;;5053426;28;19996;-70
2021/04/05 03:31:06;;;;;;;;;;;4.00;82.80;;;;;;5057169;28;20190;-70
2021/04/05 03:33:35;;;;;;;;;;;4.00;82.50;;;;;;5055607;28;19917;-69
2021/04/05 03:36:05;;;;;;;;;;;4.10;82.20;;;;;;5056482;28;19917;-69
2021/04/05 03:38:30;;;;;;;;;;;4.30;81.70;;;;;;5055654;28;19939;-69
2021/04/05 03:40:57;;;;;;;;;;;4.30;81.60;;;;;;5055680;28;19921;-67
2021/04/05 03:43:28;;;;;;;;;;;4.50;81.10;;;;;;5054748;28;20019;-68
2021/04/05 03:45:56;;;;;;;;;;;4.50;80.80;;;;;;5067226;28;19971;-67
2021/04/05 03:48:35;;;;;;;;;;;4.30;81.30;;;;;;5056707;28;20328;-67
2021/04/05 03:51:13;;;;;;;;;;;4.30;81.70;;;;;;5041447;28;19921;-70
2021/04/05 03:53:41;;;;;;;;;;;4.30;81.30;;;;;;5055324;28;19917;-69
2021/04/05 03:56:11;;;;;;;;;;;4.30;81.30;;;;;;5053063;28;19919;-69
2021/04/05 03:58:38;;;;;;;;;;;4.20;81.40;;;;;;5053167;28;19920;-67
2021/04/05 04:01:08;;;;;;;;;;;4.30;81.40;;;;;;5055798;28;19970;-69
2021/04/05 04:03:46;;;;;;;;;;;4.50;80.00;;;;;;5056201;28;19913;-70
2021/04/05 04:06:13;;;;;;;;;;;5.00;77.80;;;;;;5046649;28;20328;-69
2021/04/05 04:08:44;;;;;;;;;;;5.20;76.40;;;;;;5053363;28;19913;-69
2021/04/05 04:11:23;;;;;;;;;;;5.40;75.70;;;;;;5056340;28;19962;-68
2021/04/05 04:13:49;;;;;;;;;;;5.40;75.70;;;;;;5055475;28;20448;-69
2021/04/05 04:16:15;;;;;;;;;;;5.30;75.50;;;;;;5054859;28;20417;-69
2021/04/05 04:18:41;;;;;;;;;;;5.30;74.90;;;;;;5055954;28;19999;-69
2021/04/05 04:21:08;;;;;;;;;;;5.40;74.50;;;;;;5055955;28;19948;-70
2021/04/05 04:23:34;;;;;;;;;;;5.60;73.60;;;;;;5044864;28;19920;-69
2021/04/05 04:26:08;;;;;;;;;;;5.60;73.40;;;;;;5055544;28;19925;-69
2021/04/05 04:28:34;;;;;;;;;;;5.70;73.20;;;;;;5040744;28;20213;-70
2021/04/05 04:31:01;;;;;;;;;;;5.60;73.90;;;;;;5040700;28;19914;-69
2021/04/05 04:33:28;;;;;;;;;;;5.40;73.90;;;;;;5056257;28;20015;-69
2021/04/05 04:36:01;;;;;;;;;;;5.30;74.20;;;;;;5054866;28;20008;-69
2021/04/05 04:38:27;;;;;;;;;;;5.20;74.00;;;;;;5049546;28;19966;-69
2021/04/05 04:40:53;;;;;;;;;;;5.20;74.00;;;;;;5053229;28;19912;-69
2021/04/05 04:43:19;;;;;;;;;;;5.10;74.40;;;;;;5054530;28;20011;-69
2021/04/05 04:45:45;;;;;;;;;;;5.10;73.90;;;;;;5054381;28;19920;-69
2021/04/05 04:48:10;;;;;;;;;;;5.20;73.60;;;;;;5055642;28;19923;-69
2021/04/05 04:50:36;;;;;;;;;;;5.10;73.70;;;;;;5049341;28;19917;-69
2021/04/05 04:53:02;;;;;;;;;;;5.10;73.60;;;;;;5054032;28;19920;-69
2021/04/05 04:55:28;;;;;;;;;;;5.10;73.00;;;;;;5055574;28;19913;-68
2021/04/05 04:57:54;;;;;;;;;;;5.30;72.40;;;;;;5055349;28;19913;-70
2021/04/05 05:00:19;;;;;;;;;;;5.50;71.30;;;;;;5053483;28;19999;-70
2021/04/05 05:02:45;;;;;;;;;;;5.70;70.80;;;;;;5055291;28;19959;-69
2021/04/05 05:05:11;;;;;;;;;;;6.00;69.60;;;;;;5055714;28;19916;-70
2021/04/05 05:07:43;;;;;;;;;;;6.20;68.70;;;;;;5052749;28;19921;-69
2021/04/05 05:10:11;;;;;;;;;;;6.40;68.30;;;;;;5055408;28;20429;-69
2021/04/05 05:12:37;;;;;;;;;;;6.40;68.30;;;;;;5055065;28;20047;-69
2021/04/05 05:15:07;;;;;;;;;;;6.30;68.40;;;;;;5054494;28;20023;-68
2021/04/05 05:17:33;;;;;;;;;;;6.40;68.10;;;;;;5054269;28;19913;-69
2021/04/05 05:19:59;;;;;;;;;;;6.40;67.90;;;;;;5049519;28;19992;-70
2021/04/05 05:22:25;;;;;;;;;;;6.40;67.90;;;;;;5053107;28;19921;-70
2021/04/05 05:24:52;;;;;;;;;;;6.40;67.90;;;;;;5055671;28;20000;-70
2021/04/05 05:27:20;;;;;;;;;;;6.50;67.90;;;;;;5055127;28;19920;-69
2021/04/05 05:29:45;;;;;;;;;;;6.70;67.40;;;;;;5055195;28;19948;-69
2021/04/05 05:32:11;;;;;;;;;;;6.80;66.70;;;;;;5053260;28;19967;-69
2021/04/05 05:34:41;;;;;;;;;;;6.90;66.60;;;;;;5054526;28;19912;-69
2021/04/05 05:37:06;;;;;;;;;;;7.00;65.90;;;;;;5051565;28;19912;-69
2021/04/05 05:39:32;;;;;;;;;;;7.10;66.10;;;;;;5053863;28;19912;-69
2021/04/05 05:42:16;;;;;;;;;;;7.30;65.50;;;;;;5052201;28;19928;-70
2021/04/05 05:45:00;;;;;;;;;;;7.30;65.70;;;;;;5053441;28;19913;-70
2021/04/05 05:47:47;;;;;;;;;;;7.30;65.80;;;;;;5053561;28;20334;-70
2021/04/05 05:50:32;;;;;;;;;;;7.40;65.10;;;;;;5052822;28;19924;-70
2021/04/05 05:53:04;;;;;;;;;;;7.40;65.20;;;;;;5049860;28;19913;-68
2021/04/05 05:55:48;;;;;;;;;;;7.50;65.00;;;;;;5053118;28;19970;-69
2021/04/05 05:58:32;;;;;;;;;;;7.60;64.80;;;;;;5054455;28;19920;-69
2021/04/05 06:01:04;;;;;;;;;;;7.60;64.60;;;;;;5053588;28;19913;-69
2021/04/05 06:03:37;;;;;;;;;;;7.70;64.50;;;;;;5050272;28;19917;-69
2021/04/05 06:06:11;;;;;;;;;;;7.70;64.50;;;;;;5053246;28;20252;-69
2021/04/05 06:08:57;;;;;;;;;;;7.80;64.40;;;;;;5053148;28;20209;-70
2021/04/05 06:11:46;;;;;;;;;;;7.80;64.60;;;;;;5052362;28;21397;-69
2021/04/05 06:14:21;;;;;;;;;;;7.80;64.60;;;;;;5052336;28;19920;-69
2021/04/05 06:17:10;;;;;;;;;;;7.90;64.50;;;;;;5054576;28;19920;-70
2021/04/05 06:19:55;;;;;;;;;;;7.90;64.30;;;;;;5046774;28;19913;-69
2021/04/05 06:22:32;;;;;;;;;;;8.00;64.60;;;;;;5050752;28;20360;-69
2021/04/05 06:25:18;;;;;;;;;;;8.10;63.60;;;;;;5053737;28;19939;-69
2021/04/05 06:28:16;;;;;;;;;;;8.20;63.70;;;;;;5054160;28;20386;-69
2021/04/05 06:30:59;;;;;;;;;;;8.20;63.50;;;;;;5023383;28;19961;-69
2021/04/05 06:33:36;;;;;;;;;;;8.20;63.60;;;;;;5093896;28;20282;-69
2021/04/05 06:36:10;;;;;;;;;;;8.30;63.70;;;;;;5053741;28;19916;-69
2021/04/05 06:38:45;;;;;;;;;;;8.30;63.60;;;;;;5045470;28;19920;-68
2021/04/05 06:41:25;;;;;;;;;;;8.30;63.70;;;;;;5053796;28;20276;-68
2021/04/05 06:44:09;;;;;;;;;;;8.30;63.70;;;;;;5053976;28;20022;-70
2021/04/05 06:46:41;;;;;;;;;;;8.40;63.90;;;;;;5054402;28;19917;-70
2021/04/05 06:49:29;;;;;;;;;;;8.50;63.80;;;;;;5054568;28;19913;-70
2021/04/05 06:52:01;;;;;;;;;;;8.50;63.90;;;;;;5048626;28;19920;-69
2021/04/05 06:54:27;;;;;;;;;;;8.60;63.50;;;;;;5059464;28;19912;-70
2021/04/05 06:57:13;;;;;;;;;;;8.60;63.40;;;;;;5089124;28;19913;-70
2021/04/05 06:59:59;;;;;;;;;;;8.70;63.70;;;;;;5057662;28;19924;-70
2021/04/05 07:02:43;;;;;;;;;;;8.70;63.70;;;;;;5056627;28;19923;-69
2021/04/05 07:05:09;;;;;;;;;;;8.70;63.90;;;;;;5049216;28;19912;-70
2021/04/05 07:07:53;;;;;;;;;;;8.80;64.40;;;;;;5052876;28;20321;-70
2021/04/05 07:10:18;;;;;;;;;;;8.80;64.00;;;;;;5038959;28;19913;-69
2021/04/05 07:12:50;;;;;;;;;;;8.80;64.00;;;;;;5058447;28;19919;-70
2021/04/05 07:15:31;;;;;;;;;;;8.90;63.60;;;;;;5057652;28;20370;-70
2021/04/05 07:18:13;;;;;;;;;;;9.00;63.40;;;;;;5073178;28;19913;-70
2021/04/05 07:20:48;;;;;;;;;;;9.00;63.10;;;;;;5056573;28;19917;-70
2021/04/05 07:23:32;;;;;;;;;;;9.00;63.90;;;;;;5056204;28;20224;-69
2021/04/05 07:26:07;;;;;;;;;;;9.10;63.20;;;;;;5053891;28;19917;-68
2021/04/05 07:28:38;;;;;;;;;;;9.10;63.30;;;;;;5057025;28;19921;-69
2021/04/05 07:31:22;;;;;;;;;;;9.20;63.00;;;;;;5045287;28;19925;-68
2021/04/05 07:33:52;;;;;;;;;;;9.20;63.30;;;;;;5048649;28;20235;-68
2021/04/05 07:36:25;;;;;;;;;;;9.30;63.00;;;;;;5057361;28;20221;-68
2021/04/05 07:39:10;;;;;;;;;;;9.20;63.10;;;;;;5054615;28;19956;-68
2021/04/05 07:41:53;;;;;;;;;;;9.10;63.30;;;;;;5057101;28;20354;-69
2021/04/05 07:44:30;;;;;;;;;;;9.20;63.40;;;;;;5089226;28;19912;-68
2021/04/05 07:47:05;;;;;;;;;;;9.30;63.90;;;;;;5044896;28;19964;-68
2021/04/05 07:49:32;;;;;;;;;;;9.40;62.70;;;;;;5057378;28;20294;-69
2021/04/05 07:52:27;;;;;;;;;;;9.50;62.60;;;;;;5054946;28;19963;-67
2021/04/05 07:54:54;;;;;;;;;;;9.60;63.10;;;;;;5042519;28;20449;-69
2021/04/05 07:57:26;;;;;;;;;;;9.80;63.20;;;;;;5055222;28;20337;-69
2021/04/05 08:00:08;;;;;;;;;;;9.80;63.80;;;;;;5055564;28;20214;-68
2021/04/05 08:02:38;;;;;;;;;;;10.10;62.40;;;;;;5056550;28;19916;-68
2021/04/05 08:05:07;;;;;;;;;;;10.10;62.20;;;;;;5055778;28;20222;-68
2021/04/05 08:07:47;;;;;;;;;;;10.30;62.30;;;;;;5054482;28;20206;-69
2021/04/05 08:10:19;;;;;;;;;;;10.50;62.10;;;;;;5051896;28;19917;-69
2021/04/05 08:12:54;;;;;;;;;;;10.70;61.30;;;;;;5053664;28;19925;-68
2021/04/05 08:15:30;;;;;;;;;;;10.50;62.10;;;;;;5055558;28;19979;-68
2021/04/05 08:18:15;;;;;;;;;;;10.50;62.10;;;;;;5044442;28;19951;-68
2021/04/05 08:20:48;;;;;;;;;;;10.70;62.80;;;;;;5056411;28;19948;-69
2021/04/05 08:23:18;;;;;;;;;;;11.00;61.70;;;;;;5053587;28;19917;-68
2021/04/05 08:26:12;;;;;;;;;;;11.40;61.90;;;;;;5053736;28;19919;-68
2021/04/05 08:28:44;;;;;;;;;;;11.70;60.40;;;;;;5055821;28;19917;-68
2021/04/05 08:31:13;;;;;;;;;;;11.70;60.80;;;;;;5058577;28;19938;-68
2021/04/05 08:33:38;;;;;;;;;;;11.90;60.30;;;;;;5059448;28;19913;-68
2021/04/05 08:36:10;;;;;;;;;;;12.00;60.40;;;;;;5046574;28;19917;-69
2021/04/05 08:38:56;;;;;;;;;;;12.00;60.60;;;;;;5046941;28;20310;-69
2021/04/05 08:41:40;;;;;;;;;;;11.90;59.40;;;;;;5052154;28;19913;-69
2021/04/05 08:44:08;;;;;;;;;;;11.40;60.20;;;;;;5055569;28;19927;-68
2021/04/05 08:46:36;;;;;;;;;;;11.30;60.80;;;;;;5054439;28;20305;-69
2021/04/05 08:49:04;;;;;;;;;;;11.40;60.10;;;;;;5041222;28;19920;-69
2021/04/05 08:51:50;;;;;;;;;;;11.30;60.20;;;;;;5054564;28;19924;-69
2021/04/05 08:54:19;;;;;;;;;;;11.50;60.60;;;;;;5044395;28;19948;-69
2021/04/05 08:56:57;;;;;;;;;;;11.40;60.50;;;;;;5054504;28;19920;-69
2021/04/05 08:59:26;;;;;;;;;;;11.00;61.10;;;;;;5054541;28;20061;-68
2021/04/05 09:02:11;;;;;;;;;;;10.90;61.60;;;;;;5041476;28;19919;-69
2021/04/05 09:04:37;;;;;;;;;;;10.70;61.60;;;;;;5087526;28;19931;-69
2021/04/05 09:07:09;;;;;;;;;;;10.40;62.20;;;;;;5052780;28;19925;-68
2021/04/05 09:09:35;;;;;;;;;;;10.30;62.60;;;;;;5054082;28;19913;-69
2021/04/05 09:12:02;;;;;;;;;;;10.10;63.10;;;;;;5055326;28;19912;-69
2021/04/05 09:14:31;;;;;;;;;;;10.00;63.80;;;;;;5047537;28;20431;-68
2021/04/05 09:17:15;;;;;;;;;;;10.10;64.10;;;;;;5052744;28;19917;-68
2021/04/05 09:20:00;;;;;;;;;;;10.00;64.10;;;;;;5051801;28;19909;-69
2021/04/05 09:22:44;;;;;;;;;;;9.90;64.50;;;;;;5052766;28;19912;-69
2021/04/05 09:25:17;;;;;;;;;;;10.00;64.80;;;;;;5052013;28;19917;-68
2021/04/05 09:27:57;;;;;;;;;;;10.00;65.40;;;;;;5053380;28;19944;-67
2021/04/05 09:30:43;;;;;;;;;;;10.20;65.80;;;;;;5054130;28;19924;-67
2021/04/05 09:33:17;;;;;;;;;;;10.40;65.10;;;;;;5051428;28;19971;-68
2021/04/05 09:36:01;;;;;;;;;;;10.20;65.10;;;;;;5051636;28;20301;-67
2021/04/05 09:38:30;;;;;;;;;;;10.10;65.80;;;;;;5051770;28;19927;-67
2021/04/05 09:41:14;;;;;;;;;;;10.10;65.60;;;;;;5054804;28;20268;-69
2021/04/05 09:43:43;;;;;;;;;;;10.10;66.20;;;;;;5048699;28;20308;-67
2021/04/05 09:46:30;;;;;;;;;;;10.10;66.20;;;;;;5053240;28;19982;-68
2021/04/05 09:49:08;;;;;;;;;;;10.20;66.30;;;;;;5053286;28;20004;-67
2021/04/05 09:51:53;;;;;;;;;;;10.10;66.30;;;;;;5048401;28;20191;-67
2021/04/05 09:54:32;;;;;;;;;;;10.10;66.50;;;;;;5050474;28;19917;-68
2021/04/05 09:57:00;;;;;;;;;;;10.20;66.40;;;;;;5050610;28;20340;-67
2021/04/05 09:59:45;;;;;;;;;;;10.20;66.50;;;;;;5050852;28;19924;-68
2021/04/05 10:02:14;;;;;;;;;;;10.20;66.40;;;;;;5052810;28;19912;-68
2021/04/05 10:04:43;;;;;;;;;;;10.30;66.70;;;;;;5051462;28;19943;-67
2021/04/05 10:07:12;;;;;;;;;;;10.20;66.20;;;;;;5052530;28;19923;-67
2021/04/05 10:09:53;;;;;;;;;;;10.10;66.80;;;;;;5052255;28;19913;-67
2021/04/05 10:12:21;;;;;;;;;;;10.30;67.10;;;;;;5053664;28;19962;-69
2021/04/05 10:14:47;;;;;;;;;;;10.30;66.50;;;;;;5054922;28;19917;-66
2021/04/05 10:17:19;;;;;;;;;;;10.30;66.20;;;;;;5054783;28;20225;-66
2021/04/05 10:19:50;;;;;;;;;;;10.10;66.50;;;;;;5052941;28;19912;-66
2021/04/05 10:22:20;;;;;;;;;;;10.20;66.80;;;;;;5053534;28;19920;-67
2021/04/05 10:24:49;;;;;;;;;;;10.30;66.60;;;;;;5061646;28;20009;-67
2021/04/05 10:27:16;;;;;;;;;;;10.30;65.90;;;;;;5058179;28;19913;-64
2021/04/05 10:29:43;;;;;;;;;;;10.30;65.90;;;;;;5047994;28;20302;-65
2021/04/05 10:32:11;;;;;;;;;;;10.30;63.60;;;;;;5054725;28;20039;-67
2021/04/05 10:34:42;;;;;;;;;;;10.10;64.00;;;;;;5061761;28;20307;-66
2021/04/05 10:37:09;;;;;;;;;;;10.20;65.30;;;;;;5056597;28;19950;-66
2021/04/05 10:39:35;;;;;;;;;;;10.20;65.40;;;;;;5053911;28;20219;-66
2021/04/05 10:42:08;;;;;;;;;;;10.30;65.10;;;;;;5058203;28;20328;-67
2021/04/05 10:44:38;;;;;;;;;;;10.30;64.50;;;;;;5057359;28;19920;-65
2021/04/05 10:47:07;;;;;;;;;;;10.00;61.90;;;;;;5058163;28;19932;-67
2021/04/05 10:49:33;;;;;;;;;;;9.90;61.90;;;;;;5055357;28;19917;-66
2021/04/05 10:52:10;;;;;;;;;;;10.00;62.30;;;;;;5056979;28;19913;-65
2021/04/05 10:54:43;;;;;;;;;;;10.10;61.90;;;;;;5057861;28;19916;-67
2021/04/05 10:57:15;;;;;;;;;;;10.30;61.80;;;;;;5057846;28;20249;-66
2021/04/05 10:59:51;;;;;;;;;;;10.40;61.20;;;;;;5052066;28;19910;-66
2021/04/05 11:02:23;;;;;;;;;;;10.40;61.50;;;;;;5058450;28;20190;-66
2021/04/05 11:04:56;;;;;;;;;;;10.40;61.70;;;;;;5070217;28;19908;-66
2021/04/05 11:07:24;;;;;;;;;;;10.40;62.20;;;;;;5048743;28;19936;-66
2021/04/05 11:09:55;;;;;;;;;;;10.50;62.00;;;;;;5053806;28;19913;-66
2021/04/05 11:12:22;;;;;;;;;;;10.60;61.00;;;;;;5045520;28;20019;-67
2021/04/05 11:14:49;;;;;;;;;;;10.80;61.10;;;;;;5049658;28;19985;-65
2021/04/05 11:17:15;;;;;;;;;;;10.90;60.80;;;;;;5056278;28;19921;-67
2021/04/05 11:19:51;;;;;;;;;;;10.80;59.70;;;;;;5054762;28;19952;-65
2021/04/05 11:22:17;;;;;;;;;;;10.90;59.80;;;;;;5047653;28;20007;-65
2021/04/05 11:24:44;;;;;;;;;;;10.80;59.30;;;;;;5052948;28;19916;-67
2021/04/05 11:27:12;;;;;;;;;;;10.70;58.30;;;;;;5051535;28;19924;-66
2021/04/05 11:29:45;;;;;;;;;;;10.80;58.80;;;;;;5052233;28;19917;-66
2021/04/05 11:32:14;;;;;;;;;;;10.90;58.60;;;;;;5085599;28;19924;-66
2021/04/05 11:34:42;;;;;;;;;;;11.10;58.90;;;;;;5053902;28;19987;-67
2021/04/05 11:37:14;;;;;;;;;;;11.00;57.70;;;;;;5052754;28;19916;-66
2021/04/05 11:39:40;;;;;;;;;;;10.90;57.50;;;;;;5057330;28;20007;-66
2021/04/05 11:42:06;;;;;;;;;;;10.90;57.30;;;;;;5053340;28;19923;-66
2021/04/05 11:44:42;;;;;;;;;;;10.90;57.80;;;;;;5045616;28;19917;-66
2021/04/05 11:47:08;;;;;;;;;;;10.90;58.00;;;;;;5053311;28;19917;-66
2021/04/05 11:49:34;;;;;;;;;;;10.80;58.00;;;;;;5048003;28;19920;-66
2021/04/05 11:52:07;;;;;;;;;;;10.90;58.80;;;;;;5053117;28;19974;-67
2021/04/05 11:54:35;;;;;;;;;;;10.90;57.80;;;;;;5053531;28;19982;-67
2021/04/05 11:57:04;;;;;;;;;;;10.80;58.20;;;;;;5095357;28;20256;-66
2021/04/05 11:59:36;;;;;;;;;;;10.90;58.40;;;;;;5051394;28;19921;-66
2021/04/05 12:02:17;;;;;;;;;;;11.20;57.10;;;;;;5052781;28;20261;-66
2021/04/05 12:04:55;;;;;;;;;;;11.20;57.00;;;;;;5051517;28;19917;-67
2021/04/05 12:07:23;;;;;;;;;;;11.20;56.70;;;;;;5056960;28;20580;-66
2021/04/05 12:10:23;;;;;;;;;;;11.10;57.40;;;;;;5057456;28;19928;-67
2021/04/05 12:12:53;;;;;;;;;;;11.20;58.50;;;;;;5034750;28;19920;-67
2021/04/05 12:15:20;;;;;;;;;;;11.40;57.40;;;;;;5044732;28;19927;-67
2021/04/05 12:17:54;;;;;;;;;;;11.40;57.60;;;;;;5044643;28;20012;-66
2021/04/05 12:20:22;;;;;;;;;;;11.20;57.20;;;;;;5054924;28;19917;-66
2021/04/05 12:22:51;;;;;;;;;;;11.20;57.90;;;;;;5053755;28;19917;-66
2021/04/05 12:25:17;;;;;;;;;;;11.40;58.30;;;;;;5056329;28;20305;-66
2021/04/05 12:27:43;;;;;;;;;;;11.40;58.50;;;;;;5054277;28;19960;-66
2021/04/05 12:30:24;;;;;;;;;;;11.30;58.80;;;;;;5050340;28;20318;-67
2021/04/05 12:32:53;;;;;;;;;;;11.10;58.90;;;;;;5057339;28;19974;-66
2021/04/05 12:35:20;;;;;;;;;;;10.80;59.40;;;;;;5052310;28;19947;-66
2021/04/05 12:37:57;;;;;;;;;;;10.60;60.20;;;;;;5052139;28;19951;-67
2021/04/05 12:40:25;;;;;;;;;;;10.50;61.00;;;;;;5053788;28;20019;-67
2021/04/05 12:42:52;;;;;;;;;;;10.40;61.40;;;;;;5061943;28;20342;-66
2021/04/05 12:45:18;;;;;;;;;;;10.30;61.80;;;;;;5066559;28;20031;-67
2021/04/05 12:47:44;;;;;;;;;;;10.40;62.10;;;;;;5052337;28;19923;-67
2021/04/05 12:50:14;;;;;;;;;;;10.40;62.30;;;;;;5064134;28;19917;-66
2021/04/05 12:52:41;;;;;;;;;;;10.20;62.00;;;;;;5050437;28;19927;-67
2021/04/05 12:55:10;;;;;;;;;;;10.20;62.70;;;;;;5036176;28;19974;-68
2021/04/05 12:57:37;;;;;;;;;;;10.40;62.20;;;;;;5058456;28;20213;-66
2021/04/05 13:00:18;;;;;;;;;;;10.30;61.90;;;;;;5063224;28;20363;-67
2021/04/05 13:02:45;;;;;;;;;;;10.10;62.40;;;;;;5047424;28;20225;-68
2021/04/05 13:05:18;;;;;;;;;;;10.00;63.10;;;;;;5041129;28;19920;-67
2021/04/05 13:08:01;;;;;;;;;;;10.10;63.10;;;;;;5052516;28;19921;-67
2021/04/05 13:10:29;;;;;;;;;;;10.10;63.00;;;;;;5052561;28;19916;-67
2021/04/05 13:12:56;;;;;;;;;;;10.00;63.40;;;;;;5051757;28;20052;-67
2021/04/05 13:15:24;;;;;;;;;;;9.80;63.40;;;;;;5050728;28;20317;-67
2021/04/05 13:17:51;;;;;;;;;;;9.70;64.00;;;;;;5052696;28;20112;-67
2021/04/05 13:20:27;;;;;;;;;;;9.80;64.30;;;;;;5051213;28;20194;-67
2021/04/05 13:22:56;;;;;;;;;;;9.90;64.40;;;;;;5050846;28;19921;-67
2021/04/05 13:25:29;;;;;;;;;;;10.00;64.30;;;;;;5050994;28;19913;-66
2021/04/05 13:27:58;;;;;;;;;;;10.00;64.10;;;;;;5046670;28;19921;-68
2021/04/05 13:30:34;;;;;;;;;;;9.80;63.80;;;;;;5047832;28;19923;-68
2021/04/05 13:33:01;;;;;;;;;;;9.60;64.20;;;;;;5081518;28;20295;-66
2021/04/05 13:35:28;;;;;;;;;;;9.60;64.60;;;;;;5051902;28;19923;-67
2021/04/05 13:37:54;;;;;;;;;;;9.60;64.20;;;;;;5049697;28;20306;-67
2021/04/05 13:40:21;;;;;;;;;;;9.60;64.30;;;;;;5051317;28;19913;-67
2021/04/05 13:42:48;;;;;;;;;;;9.60;64.90;;;;;;5051359;28;19918;-68
2021/04/05 13:45:15;;;;;;;;;;;9.60;64.70;;;;;;5051733;28;19917;-66
2021/04/05 13:47:46;;;;;;;;;;;9.50;65.00;;;;;;5051526;28;19923;-67
2021/04/05 13:50:13;;;;;;;;;;;9.30;65.30;;;;;;5050591;28;19916;-68
2021/04/05 13:52:39;;;;;;;;;;;9.30;65.60;;;;;;5050418;28;19913;-66
2021/04/05 13:55:09;;;;;;;;;;;9.20;65.90;;;;;;5050438;28;19924;-68
2021/04/05 13:57:53;;;;;;;;;;;9.10;65.80;;;;;;5050084;28;19921;-67
2021/04/05 14:00:29;;;;;;;;;;;9.10;66.50;;;;;;5050091;28;19913;-67
2021/04/05 14:03:05;;;;;;;;;;;9.10;66.60;;;;;;5056051;28;20549;-68
2021/04/05 14:05:34;;;;;;;;;;;9.10;66.90;;;;;;5056480;28;19923;-68
2021/04/05 14:08:02;;;;;;;;;;;9.10;67.10;;;;;;5054647;28;19920;-66
2021/04/05 14:10:28;;;;;;;;;;;9.10;67.20;;;;;;5053637;28;20660;-66
2021/04/05 14:12:54;;;;;;;;;;;9.10;67.40;;;;;;5053143;28;19991;-67
2021/04/05 14:15:25;;;;;;;;;;;9.10;67.20;;;;;;5054704;28;19979;-66
2021/04/05 14:18:09;;;;;;;;;;;9.00;67.50;;;;;;5056442;28;19908;-67
2021/04/05 14:20:38;;;;;;;;;;;9.00;68.10;;;;;;5055175;28;19923;-66
2021/04/05 14:23:10;;;;;;;;;;;9.00;68.40;;;;;;5051463;28;20051;-66
2021/04/05 14:25:45;;;;;;;;;;;9.10;68.20;;;;;;5056415;28;19924;-66
2021/04/05 14:28:30;;;;;;;;;;;9.10;68.40;;;;;;5055846;28;20360;-66
2021/04/05 14:31:03;;;;;;;;;;;9.10;68.60;;;;;;5044475;28;19923;-66
2021/04/05 14:33:32;;;;;;;;;;;9.00;69.00;;;;;;5055207;28;20301;-66
2021/04/05 14:36:00;;;;;;;;;;;9.00;69.20;;;;;;5054852;28;19936;-66
2021/04/05 14:38:28;;;;;;;;;;;9.10;69.10;;;;;;5054743;28;20336;-67
2021/04/05 14:40:56;;;;;;;;;;;9.00;69.20;;;;;;5054768;28;19917;-66
2021/04/05 14:43:39;;;;;;;;;;;9.00;69.80;;;;;;5054925;28;19923;-66
2021/04/05 14:46:07;;;;;;;;;;;8.90;70.00;;;;;;5055192;28;19995;-66
2021/04/05 14:48:36;;;;;;;;;;;8.80;70.30;;;;;;5055916;28;19916;-67